This is the latest recevied weather packets stored in our database for station/object N2RDT. If no packets are shown the sender has not sent any weather packets the latest 10 day(s).
| Time | Temp. | Humidity | Pressure | Rain* | Wind** | Luminosity | Snow |
|---|---|---|---|---|---|---|---|
| 1777575336 | 22.78° C | 50% | 1009.5 hPa | 0 mm | - | 356 W/m² | - |
| 1777574728 | 21.67° C | 53% | 1009.7 hPa | 0 mm | - | 817 W/m² | - |
| 1777574121 | 21.67° C | 52% | 1009.7 hPa | 0 mm | - | 925 W/m² | - |
| 1777572905 | 21.67° C | 52% | 1009.8 hPa | 0 mm | - | 925 W/m² | - |
| 1777571997 | 21.11° C | 57% | 1009.9 hPa | 0 mm | - | 938 W/m² | - |
| 1777571697 | 20.56° C | 56% | 1009.6 hPa | 0 mm | - | 943 W/m² | - |
| 1777570483 | 20° C | 62% | 1010.3 hPa | 0 mm | - | 1013 W/m² | - |
| 1777570179 | 19.44° C | 62% | 1010.3 hPa | 0 mm | - | 1117 W/m² | - |
| 1777569268 | 18.33° C | 70% | 1010.3 hPa | 0 mm | - | 443 W/m² | - |
| 1777568964 | 17.78° C | 68% | 1010.6 hPa | 0 mm | - | 366 W/m² | - |
| 1777568661 | 17.78° C | 70% | 1010.6 hPa | 0 mm | - | 345 W/m² | - |
| 1777568359 | 17.78° C | 69% | 1010.6 hPa | 0 mm | - | 251 W/m² | - |
| 1777567752 | 17.78° C | 70% | 1011 hPa | 0 mm | - | 269 W/m² | - |
| 1777566844 | 17.78° C | 71% | 1011.1 hPa | 0 mm | - | 426 W/m² | - |
| 1777566239 | 17.22° C | 70% | 1011.2 hPa | 0 mm | - | 296 W/m² | - |
| 1777565936 | 17.22° C | 72% | 1011.1 hPa | 0 mm | - | 272 W/m² | - |
| 1777565631 | 17.22° C | 72% | 1011.4 hPa | 0 mm | - | 272 W/m² | - |
| 1777565024 | 17.22° C | 71% | 1011 hPa | 0 mm | - | 220 W/m² | - |
| 1777563504 | 16.67° C | 73% | 1010.8 hPa | 0 mm | - | 237 W/m² | - |
| 1777563203 | 16.67° C | 74% | 1010.9 hPa | 0 mm | - | 183 W/m² | - |
| 1777562900 | 16.67° C | 74% | 1011.2 hPa | 0 mm | - | 173 W/m² | - |
| 1777562596 | 16.67° C | 74% | 1011 hPa | 0 mm | - | 209 W/m² | - |
| 1777562295 | 16.67° C | 73% | 1011 hPa | 0 mm | - | 208 W/m² | - |
| 1777561384 | 16.67° C | 75% | 1010.8 hPa | 0 mm | - | 299 W/m² | - |
| 1777560473 | 16.67° C | 74% | 1010.6 hPa | 0 mm | - | 338 W/m² | - |
* Rain latest hour (hover to see other rain measurements)
** Current wind speed in m/s (hover to see current wind gust speed)